Aviation Digital Data Service (ADDS)

Output produced by METARs form (1422 UTC 21 August 2019)
found at http://www.aviationweather.gov/metar/data/
 
METAR text: OMAD 211400Z 34008KT 310V020 CAVOK 37/24 Q1001 NOSIG
Conditions at: OMAD (ABU DHABI/BATEEN, AE) observed 1400 UTC 21 August 2019
Temperature: 37.0°C (99°F)
Dewpoint: 24.0°C (75°F) [RH = 48%]
Pressure (altimeter): 29.56 inches Hg (1001.0 mb)
Winds: from the NNW (340 degrees) at 9 MPH (8 knots; 4.1 m/s)
Visibility: 6 or more miles (10+ km)
Ceiling: ceiling and visibility are OK
Clouds: unknown
Weather: no significant weather observed at this time

METAR text: OMAD 211300Z 33010KT 310V010 CAVOK 39/22 Q1001 NOSIG
Conditions at: OMAD (ABU DHABI/BATEEN, AE) observed 1300 UTC 21 August 2019
Temperature: 39.0°C (102°F)
Dewpoint: 22.0°C (72°F) [RH = 38%]
Pressure (altimeter): 29.56 inches Hg (1001.0 mb)
Winds: from the NNW (330 degrees) at 12 MPH (10 knots; 5.1 m/s)
Visibility: 6 or more miles (10+ km)
Ceiling: ceiling and visibility are OK
Clouds: unknown
Weather: no significant weather observed at this time

METAR text: OMAD 211200Z 35009KT 320V030 CAVOK 42/16 Q1001 NOSIG
Conditions at: OMAD (ABU DHABI/BATEEN, AE) observed 1200 UTC 21 August 2019
Temperature: 42.0°C (108°F)
Dewpoint: 16.0°C (61°F) [RH = 22%]
Pressure (altimeter): 29.56 inches Hg (1001.0 mb)
Winds: from the N (350 degrees) at 10 MPH (9 knots; 4.6 m/s)
Visibility: 6 or more miles (10+ km)
Ceiling: ceiling and visibility are OK
Clouds: unknown
Weather: no significant weather observed at this time

METAR text: OMAD 211100Z 30006KT 250V350 CAVOK 42/16 Q1002 NOSIG
Conditions at: OMAD (ABU DHABI/BATEEN, AE) observed 1100 UTC 21 August 2019
Temperature: 42.0°C (108°F)
Dewpoint: 16.0°C (61°F) [RH = 22%]
Pressure (altimeter): 29.59 inches Hg (1002.0 mb)
Winds: from the WNW (300 degrees) at 7 MPH (6 knots; 3.1 m/s)
Visibility: 6 or more miles (10+ km)
Ceiling: ceiling and visibility are OK
Clouds: unknown
Weather: no significant weather observed at this time

METAR text: OMAD 211000Z VRB05KT CAVOK 42/11 Q1002 BECMG 33011KT
Conditions at: OMAD (ABU DHABI/BATEEN, AE) observed 1000 UTC 21 August 2019
Temperature: 42.0°C (108°F)
Dewpoint: 11.0°C (52°F) [RH = 16%]
Pressure (altimeter): 29.59 inches Hg (1002.0 mb)
Winds: variable direction winds at 6 MPH (5 knots; 2.6 m/s)
Visibility: 6 or more miles (10+ km)
Ceiling: ceiling and visibility are OK
Clouds: unknown
Weather: no significant weather observed at this time

METAR text: OMAD 210900Z VRB04KT CAVOK 41/17 Q1003 BECMG 33011KT
Conditions at: OMAD (ABU DHABI/BATEEN, AE) observed 0900 UTC 21 August 2019
Temperature: 41.0°C (106°F)
Dewpoint: 17.0°C (63°F) [RH = 25%]
Pressure (altimeter): 29.62 inches Hg (1003.0 mb)
Winds: variable direction winds at 5 MPH (4 knots; 2.1 m/s)
Visibility: 6 or more miles (10+ km)
Ceiling: ceiling and visibility are OK
Clouds: unknown
Weather: no significant weather observed at this time

METAR text: OMAD 210800Z 21005KT 140V260 CAVOK 40/18 Q1004 BECMG 33011KT
Conditions at: OMAD (ABU DHABI/BATEEN, AE) observed 0800 UTC 21 August 2019
Temperature: 40.0°C (104°F)
Dewpoint: 18.0°C (64°F) [RH = 28%]
Pressure (altimeter): 29.65 inches Hg (1004.0 mb)
Winds: from the SSW (210 degrees) at 6 MPH (5 knots; 2.6 m/s)
Visibility: 6 or more miles (10+ km)
Ceiling: ceiling and visibility are OK
Clouds: unknown
Weather: no significant weather observed at this time

METAR text: OMAD 210700Z 16007KT 130V200 CAVOK 38/19 Q1004 NOSIG
Conditions at: OMAD (ABU DHABI/BATEEN, AE) observed 0700 UTC 21 August 2019
Temperature: 38.0°C (100°F)
Dewpoint: 19.0°C (66°F) [RH = 33%]
Pressure (altimeter): 29.65 inches Hg (1004.0 mb)
Winds: from the SSE (160 degrees) at 8 MPH (7 knots; 3.6 m/s)
Visibility: 6 or more miles (10+ km)
Ceiling: ceiling and visibility are OK
Clouds: unknown
Weather: no significant weather observed at this time

METAR text: OMAD 210600Z 17008KT 130V210 CAVOK 36/19 Q1005 NOSIG
Conditions at: OMAD (ABU DHABI/BATEEN, AE) observed 0600 UTC 21 August 2019
Temperature: 36.0°C (97°F)
Dewpoint: 19.0°C (66°F) [RH = 37%]
Pressure (altimeter): 29.68 inches Hg (1005.0 mb)
Winds: from the S (170 degrees) at 9 MPH (8 knots; 4.1 m/s)
Visibility: 6 or more miles (10+ km)
Ceiling: ceiling and visibility are OK
Clouds: unknown
Weather: no significant weather observed at this time

METAR text: OMAD 210500Z 16009KT 130V200 CAVOK 34/19 Q1005 NOSIG
Conditions at: OMAD (ABU DHABI/BATEEN, AE) observed 0500 UTC 21 August 2019
Temperature: 34.0°C (93°F)
Dewpoint: 19.0°C (66°F) [RH = 41%]
Pressure (altimeter): 29.68 inches Hg (1005.0 mb)
Winds: from the SSE (160 degrees) at 10 MPH (9 knots; 4.6 m/s)
Visibility: 6 or more miles (10+ km)
Ceiling: ceiling and visibility are OK
Clouds: unknown
Weather: no significant weather observed at this time

METAR text: OMAD 210400Z 16009KT 9000 NSC 33/19 Q1004 NOSIG
Conditions at: OMAD (ABU DHABI/BATEEN, AE) observed 0400 UTC 21 August 2019
Temperature: 33.0°C (91°F)
Dewpoint: 19.0°C (66°F) [RH = 44%]
Pressure (altimeter): 29.65 inches Hg (1004.0 mb)
Winds: from the SSE (160 degrees) at 10 MPH (9 knots; 4.6 m/s)
Visibility: 6 miles ( 9 km)
Ceiling: at least 12,000 feet AGL
Clouds: sky clear below 12,000 feet AGL
Weather: no significant weather observed at this time

METAR text: OMAD 210300Z 13006KT 8000 NSC 32/25 Q1004 NOSIG
Conditions at: OMAD (ABU DHABI/BATEEN, AE) observed 0300 UTC 21 August 2019
Temperature: 32.0°C (90°F)
Dewpoint: 25.0°C (77°F) [RH = 67%]
Pressure (altimeter): 29.65 inches Hg (1004.0 mb)
Winds: from the SE (130 degrees) at 7 MPH (6 knots; 3.1 m/s)
Visibility: 5 miles ( 8 km)
Ceiling: at least 12,000 feet AGL
Clouds: sky clear below 12,000 feet AGL
Weather: no significant weather observed at this time

METAR text: OMAD 210200Z 12004KT 6000 NSC 31/25 Q1004 NOSIG
Conditions at: OMAD (ABU DHABI/BATEEN, AE) observed 0200 UTC 21 August 2019
Temperature: 31.0°C (88°F)
Dewpoint: 25.0°C (77°F) [RH = 71%]
Pressure (altimeter): 29.65 inches Hg (1004.0 mb)
Winds: from the ESE (120 degrees) at 5 MPH (4 knots; 2.1 m/s)
Visibility: 4 miles ( 6 km)
Ceiling: at least 12,000 feet AGL
Clouds: sky clear below 12,000 feet AGL
Weather: no significant weather observed at this time

METAR text: OMAD 210100Z 12004KT 6000 NSC 32/26 Q1003 NOSIG
Conditions at: OMAD (ABU DHABI/BATEEN, AE) observed 0100 UTC 21 August 2019
Temperature: 32.0°C (90°F)
Dewpoint: 26.0°C (79°F) [RH = 71%]
Pressure (altimeter): 29.62 inches Hg (1003.0 mb)
Winds: from the ESE (120 degrees) at 5 MPH (4 knots; 2.1 m/s)
Visibility: 4 miles ( 6 km)
Ceiling: at least 12,000 feet AGL
Clouds: sky clear below 12,000 feet AGL
Weather: no significant weather observed at this time

METAR text: OMAD 210000Z 10004KT 6000 NSC 32/27 Q1003 NOSIG
Conditions at: OMAD (ABU DHABI/BATEEN, AE) observed 0000 UTC 21 August 2019
Temperature: 32.0°C (90°F)
Dewpoint: 27.0°C (81°F) [RH = 75%]
Pressure (altimeter): 29.62 inches Hg (1003.0 mb)
Winds: from the E (100 degrees) at 5 MPH (4 knots; 2.1 m/s)
Visibility: 4 miles ( 6 km)
Ceiling: at least 12,000 feet AGL
Clouds: sky clear below 12,000 feet AGL
Weather: no significant weather observed at this time

METAR text: OMAD 202300Z 05004KT 010V070 6000 NSC 32/27 Q1002 NOSIG
Conditions at: OMAD (ABU DHABI/BATEEN, AE) observed 2300 UTC 20 August 2019
Temperature: 32.0°C (90°F)
Dewpoint: 27.0°C (81°F) [RH = 75%]
Pressure (altimeter): 29.59 inches Hg (1002.0 mb)
Winds: from the NE (50 degrees) at 5 MPH (4 knots; 2.1 m/s)
Visibility: 4 miles ( 6 km)
Ceiling: at least 12,000 feet AGL
Clouds: sky clear below 12,000 feet AGL
Weather: no significant weather observed at this time

METAR text: OMAD 202200Z 04005KT 6000 NSC 32/27 Q1002 NOSIG
Conditions at: OMAD (ABU DHABI/BATEEN, AE) observed 2200 UTC 20 August 2019
Temperature: 32.0°C (90°F)
Dewpoint: 27.0°C (81°F) [RH = 75%]
Pressure (altimeter): 29.59 inches Hg (1002.0 mb)
Winds: from the NE (40 degrees) at 6 MPH (5 knots; 2.6 m/s)
Visibility: 4 miles ( 6 km)
Ceiling: at least 12,000 feet AGL
Clouds: sky clear below 12,000 feet AGL
Weather: no significant weather observed at this time

METAR text: OMAD 202100Z 09007KT 8000 NSC 33/28 Q1003 NOSIG
Conditions at: OMAD (ABU DHABI/BATEEN, AE) observed 2100 UTC 20 August 2019
Temperature: 33.0°C (91°F)
Dewpoint: 28.0°C (82°F) [RH = 75%]
Pressure (altimeter): 29.62 inches Hg (1003.0 mb)
Winds: from the E (90 degrees) at 8 MPH (7 knots; 3.6 m/s)
Visibility: 5 miles ( 8 km)
Ceiling: at least 12,000 feet AGL
Clouds: sky clear below 12,000 feet AGL
Weather: no significant weather observed at this time

METAR text: OMAD 202000Z 07004KT 8000 NSC 33/28 Q1002 NOSIG
Conditions at: OMAD (ABU DHABI/BATEEN, AE) observed 2000 UTC 20 August 2019
Temperature: 33.0°C (91°F)
Dewpoint: 28.0°C (82°F) [RH = 75%]
Pressure (altimeter): 29.59 inches Hg (1002.0 mb)
Winds: from the ENE (70 degrees) at 5 MPH (4 knots; 2.1 m/s)
Visibility: 5 miles ( 8 km)
Ceiling: at least 12,000 feet AGL
Clouds: sky clear below 12,000 feet AGL
Weather: no significant weather observed at this time

METAR text: OMAD 201900Z 02005KT 8000 NSC 34/28 Q1003 NOSIG
Conditions at: OMAD (ABU DHABI/BATEEN, AE) observed 1900 UTC 20 August 2019
Temperature: 34.0°C (93°F)
Dewpoint: 28.0°C (82°F) [RH = 71%]
Pressure (altimeter): 29.62 inches Hg (1003.0 mb)
Winds: from the NNE (20 degrees) at 6 MPH (5 knots; 2.6 m/s)
Visibility: 5 miles ( 8 km)
Ceiling: at least 12,000 feet AGL
Clouds: sky clear below 12,000 feet AGL
Weather: no significant weather observed at this time

METAR text: OMAD 201800Z 01008KT 8000 NSC 34/29 Q1003 NOSIG
Conditions at: OMAD (ABU DHABI/BATEEN, AE) observed 1800 UTC 20 August 2019
Temperature: 34.0°C (93°F)
Dewpoint: 29.0°C (84°F) [RH = 75%]
Pressure (altimeter): 29.62 inches Hg (1003.0 mb)
Winds: from the N (10 degrees) at 9 MPH (8 knots; 4.1 m/s)
Visibility: 5 miles ( 8 km)
Ceiling: at least 12,000 feet AGL
Clouds: sky clear below 12,000 feet AGL
Weather: no significant weather observed at this time

METAR text: OMAD 201700Z 02005KT 350V050 9000 NSC 35/28 Q1003 NOSIG
Conditions at: OMAD (ABU DHABI/BATEEN, AE) observed 1700 UTC 20 August 2019
Temperature: 35.0°C (95°F)
Dewpoint: 28.0°C (82°F) [RH = 67%]
Pressure (altimeter): 29.62 inches Hg (1003.0 mb)
Winds: from the NNE (20 degrees) at 6 MPH (5 knots; 2.6 m/s)
Visibility: 6 miles ( 9 km)
Ceiling: at least 12,000 feet AGL
Clouds: sky clear below 12,000 feet AGL
Weather: no significant weather observed at this time

METAR text: OMAD 201600Z 33006KT CAVOK 37/25 Q1002 NOSIG
Conditions at: OMAD (ABU DHABI/BATEEN, AE) observed 1600 UTC 20 August 2019
Temperature: 37.0°C (99°F)
Dewpoint: 25.0°C (77°F) [RH = 50%]
Pressure (altimeter): 29.59 inches Hg (1002.0 mb)
Winds: from the NNW (330 degrees) at 7 MPH (6 knots; 3.1 m/s)
Visibility: 6 or more miles (10+ km)
Ceiling: ceiling and visibility are OK
Clouds: unknown
Weather: no significant weather observed at this time

METAR text: OMAD 201500Z 33008KT CAVOK 36/26 Q1002 NOSIG
Conditions at: OMAD (ABU DHABI/BATEEN, AE) observed 1500 UTC 20 August 2019
Temperature: 36.0°C (97°F)
Dewpoint: 26.0°C (79°F) [RH = 57%]
Pressure (altimeter): 29.59 inches Hg (1002.0 mb)
Winds: from the NNW (330 degrees) at 9 MPH (8 knots; 4.1 m/s)
Visibility: 6 or more miles (10+ km)
Ceiling: ceiling and visibility are OK
Clouds: unknown
Weather: no significant weather observed at this time

METAR text: OMAD 201400Z 33011KT CAVOK 38/25 Q1002 NOSIG
Conditions at: OMAD (ABU DHABI/BATEEN, AE) observed 1400 UTC 20 August 2019
Temperature: 38.0°C (100°F)
Dewpoint: 25.0°C (77°F) [RH = 48%]
Pressure (altimeter): 29.59 inches Hg (1002.0 mb)
Winds: from the NNW (330 degrees) at 13 MPH (11 knots; 5.7 m/s)
Visibility: 6 or more miles (10+ km)
Ceiling: ceiling and visibility are OK
Clouds: unknown
Weather: no significant weather observed at this time

METAR text: OMAD 201300Z 33013KT CAVOK 39/24 Q1002 NOSIG
Conditions at: OMAD (ABU DHABI/BATEEN, AE) observed 1300 UTC 20 August 2019
Temperature: 39.0°C (102°F)
Dewpoint: 24.0°C (75°F) [RH = 43%]
Pressure (altimeter): 29.59 inches Hg (1002.0 mb)
Winds: from the NNW (330 degrees) at 15 MPH (13 knots; 6.7 m/s)
Visibility: 6 or more miles (10+ km)
Ceiling: ceiling and visibility are OK
Clouds: unknown
Weather: no significant weather observed at this time

METAR text: OMAD 201200Z 25004KT 160V320 CAVOK 43/14 Q1002 BECMG 32011KT
Conditions at: OMAD (ABU DHABI/BATEEN, AE) observed 1200 UTC 20 August 2019
Temperature: 43.0°C (109°F)
Dewpoint: 14.0°C (57°F) [RH = 19%]
Pressure (altimeter): 29.59 inches Hg (1002.0 mb)
Winds: from the WSW (250 degrees) at 5 MPH (4 knots; 2.1 m/s)
Visibility: 6 or more miles (10+ km)
Ceiling: ceiling and visibility are OK
Clouds: unknown
Weather: no significant weather observed at this time

METAR text: OMAD 201100Z 24005KT 180V290 CAVOK 43/15 Q1002 BECMG 32011KT
Conditions at: OMAD (ABU DHABI/BATEEN, AE) observed 1100 UTC 20 August 2019
Temperature: 43.0°C (109°F)
Dewpoint: 15.0°C (59°F) [RH = 20%]
Pressure (altimeter): 29.59 inches Hg (1002.0 mb)
Winds: from the WSW (240 degrees) at 6 MPH (5 knots; 2.6 m/s)
Visibility: 6 or more miles (10+ km)
Ceiling: ceiling and visibility are OK
Clouds: unknown
Weather: no significant weather observed at this time

METAR text: OMAD 201000Z 20005KT 150V280 CAVOK 42/17 Q1003 BECMG 32011KT
Conditions at: OMAD (ABU DHABI/BATEEN, AE) observed 1000 UTC 20 August 2019
Temperature: 42.0°C (108°F)
Dewpoint: 17.0°C (63°F) [RH = 24%]
Pressure (altimeter): 29.62 inches Hg (1003.0 mb)
Winds: from the SSW (200 degrees) at 6 MPH (5 knots; 2.6 m/s)
Visibility: 6 or more miles (10+ km)
Ceiling: ceiling and visibility are OK
Clouds: unknown
Weather: no significant weather observed at this time

METAR text: OMAD 200900Z 19005KT CAVOK 41/17 Q1004 NOSIG
Conditions at: OMAD (ABU DHABI/BATEEN, AE) observed 0900 UTC 20 August 2019
Temperature: 41.0°C (106°F)
Dewpoint: 17.0°C (63°F) [RH = 25%]
Pressure (altimeter): 29.65 inches Hg (1004.0 mb)
Winds: from the S (190 degrees) at 6 MPH (5 knots; 2.6 m/s)
Visibility: 6 or more miles (10+ km)
Ceiling: ceiling and visibility are OK
Clouds: unknown
Weather: no significant weather observed at this time

METAR text: OMAD 200800Z 16008KT 130V220 9000 NSC 39/17 Q1004 NOSIG
Conditions at: OMAD (ABU DHABI/BATEEN, AE) observed 0800 UTC 20 August 2019
Temperature: 39.0°C (102°F)
Dewpoint: 17.0°C (63°F) [RH = 28%]
Pressure (altimeter): 29.65 inches Hg (1004.0 mb)
Winds: from the SSE (160 degrees) at 9 MPH (8 knots; 4.1 m/s)
Visibility: 6 miles ( 9 km)
Ceiling: at least 12,000 feet AGL
Clouds: sky clear below 12,000 feet AGL
Weather: no significant weather observed at this time

METAR text: OMAD 200700Z 16010KT 130V190 9000 NSC 37/17 Q1005 NOSIG
Conditions at: OMAD (ABU DHABI/BATEEN, AE) observed 0700 UTC 20 August 2019
Temperature: 37.0°C (99°F)
Dewpoint: 17.0°C (63°F) [RH = 31%]
Pressure (altimeter): 29.68 inches Hg (1005.0 mb)
Winds: from the SSE (160 degrees) at 12 MPH (10 knots; 5.1 m/s)
Visibility: 6 miles ( 9 km)
Ceiling: at least 12,000 feet AGL
Clouds: sky clear below 12,000 feet AGL
Weather: no significant weather observed at this time

METAR text: OMAD 200600Z 15010KT 7000 NSC 36/18 Q1005 NOSIG
Conditions at: OMAD (ABU DHABI/BATEEN, AE) observed 0600 UTC 20 August 2019
Temperature: 36.0°C (97°F)
Dewpoint: 18.0°C (64°F) [RH = 35%]
Pressure (altimeter): 29.68 inches Hg (1005.0 mb)
Winds: from the SSE (150 degrees) at 12 MPH (10 knots; 5.1 m/s)
Visibility: 4 miles ( 7 km)
Ceiling: at least 12,000 feet AGL
Clouds: sky clear below 12,000 feet AGL
Weather: no significant weather observed at this time

METAR text: OMAD 200500Z 15009KT 6000 NSC 34/19 Q1005 TEMPO 4000 DU
Conditions at: OMAD (ABU DHABI/BATEEN, AE) observed 0500 UTC 20 August 2019
Temperature: 34.0°C (93°F)
Dewpoint: 19.0°C (66°F) [RH = 41%]
Pressure (altimeter): 29.68 inches Hg (1005.0 mb)
Winds: from the SSE (150 degrees) at 10 MPH (9 knots; 4.6 m/s)
Visibility: 4 miles ( 6 km)
Ceiling: at least 12,000 feet AGL
Clouds: sky clear below 12,000 feet AGL
Weather: no significant weather observed at this time

METAR text: OMAD 200400Z 15009KT 4000 DU NSC 34/20 Q1005 NOSIG
Conditions at: OMAD (ABU DHABI/BATEEN, AE) observed 0400 UTC 20 August 2019
Temperature: 34.0°C (93°F)
Dewpoint: 20.0°C (68°F) [RH = 44%]
Pressure (altimeter): 29.68 inches Hg (1005.0 mb)
Winds: from the SSE (150 degrees) at 10 MPH (9 knots; 4.6 m/s)
Visibility: 2.49 miles (4.01 km)
Ceiling: at least 12,000 feet AGL
Clouds: sky clear below 12,000 feet AGL
Weather: DU  (widespread dust)

METAR text: OMAD 200300Z 15008KT 120V180 4000 DU NSC 33/20 Q1004 NOSIG
Conditions at: OMAD (ABU DHABI/BATEEN, AE) observed 0300 UTC 20 August 2019
Temperature: 33.0°C (91°F)
Dewpoint: 20.0°C (68°F) [RH = 46%]
Pressure (altimeter): 29.65 inches Hg (1004.0 mb)
Winds: from the SSE (150 degrees) at 9 MPH (8 knots; 4.1 m/s)
Visibility: 2.49 miles (4.01 km)
Ceiling: at least 12,000 feet AGL
Clouds: sky clear below 12,000 feet AGL
Weather: DU  (widespread dust)

METAR text: OMAD 200238Z 15008KT 4500 DU NSC 33/20 Q1004 NOSIG
Conditions at: OMAD (ABU DHABI/BATEEN, AE) observed 0238 UTC 20 August 2019
Temperature: 33.0°C (91°F)
Dewpoint: 20.0°C (68°F) [RH = 46%]
Pressure (altimeter): 29.65 inches Hg (1004.0 mb)
Winds: from the SSE (150 degrees) at 9 MPH (8 knots; 4.1 m/s)
Visibility: 2.80 miles (4.51 km)
Ceiling: at least 12,000 feet AGL
Clouds: sky clear below 12,000 feet AGL
Weather: DU  (widespread dust)

Forecast for: OMAD (ABU DHABI/BATEEN, AE)
Text: TAF OMAD 211100Z 2112/2218 33010KT 8000 NSC
Forecast period: 1200 to 1600 UTC 21 August 2019
Forecast type: FROM: standard forecast or significant change
Winds: from the NNW (330 degrees) at 12 MPH (10 knots; 5.1 m/s)
Visibility: 5 miles (8 km)
Ceiling: unknown
Clouds: missing
Weather: no significant weather forecast for this period
Text: BECMG 2116/2118 05005KT
Forecast period: 1600 UTC 21 August 2019 to 0000 UTC 22 August 2019
Forecast type: BECOMING: Conditions expected to become as follows by 1800 UTC 21 August 2019
Winds: from the NE (50 degrees) at 6 MPH (5 knots; 2.6 m/s)
Visibility: 5 miles (8 km)
Ceiling: unknown
Clouds: missing
Weather: no significant weather forecast for this period
Text: BECMG 2200/2202 15004KT
Forecast period: 0000 to 0700 UTC 22 August 2019
Forecast type: BECOMING: Conditions expected to become as follows by 0200 UTC 22 August 2019
Winds: from the SSE (150 degrees) at 5 MPH (4 knots; 2.1 m/s)
Visibility: 5 miles (8 km)
Ceiling: unknown
Clouds: missing
Weather: no significant weather forecast for this period
Text: BECMG 2207/2209 32011KT
Forecast period: 0700 to 1500 UTC 22 August 2019
Forecast type: BECOMING: Conditions expected to become as follows by 0900 UTC 22 August 2019
Winds: from the NW (320 degrees) at 13 MPH (11 knots; 5.7 m/s)
Visibility: 5 miles (8 km)
Ceiling: unknown
Clouds: missing
Weather: no significant weather forecast for this period
Text: BECMG 2215/2217 04005KT
Forecast period: 1500 to 1800 UTC 22 August 2019
Forecast type: BECOMING: Conditions expected to become as follows by 1700 UTC 22 August 2019
Winds: from the NE (40 degrees) at 6 MPH (5 knots; 2.6 m/s)
Visibility: 5 miles (8 km)
Ceiling: unknown
Clouds: missing
Weather: no significant weather forecast for this period